sensor_id;sensor_type;location;lat;lon;timestamp;P1;durP1;ratioP1;P2;durP2;ratioP2
22046;SDS011;11187;49.412;20.956;2023-03-08T00:00:24;38.22;;;25.65;;
22046;SDS011;11187;49.412;20.956;2023-03-08T00:03:18;32.22;;;22.10;;
22046;SDS011;11187;49.412;20.956;2023-03-08T00:06:13;30.27;;;20.83;;
22046;SDS011;11187;49.412;20.956;2023-03-08T00:09:08;29.85;;;20.52;;
22046;SDS011;11187;49.412;20.956;2023-03-08T00:12:02;34.67;;;19.63;;
22046;SDS011;11187;49.412;20.956;2023-03-08T00:14:35;24.25;;;19.33;;
22046;SDS011;11187;49.412;20.956;2023-03-08T00:17:22;27.77;;;19.80;;
22046;SDS011;11187;49.412;20.956;2023-03-08T00:19:56;22.40;;;18.90;;
22046;SDS011;11187;49.412;20.956;2023-03-08T00:22:44;23.17;;;19.33;;
22046;SDS011;11187;49.412;20.956;2023-03-08T00:25:17;28.33;;;21.13;;
22046;SDS011;11187;49.412;20.956;2023-03-08T00:28:11;24.35;;;19.00;;
22046;SDS011;11187;49.412;20.956;2023-03-08T00:30:44;26.20;;;21.25;;
22046;SDS011;11187;49.412;20.956;2023-03-08T00:33:31;21.60;;;17.95;;
22046;SDS011;11187;49.412;20.956;2023-03-08T00:36:08;23.55;;;20.30;;
22046;SDS011;11187;49.412;20.956;2023-03-08T00:38:58;32.20;;;23.83;;
22046;SDS011;11187;49.412;20.956;2023-03-08T00:41:31;28.23;;;20.63;;
22046;SDS011;11187;49.412;20.956;2023-03-08T00:44:19;24.80;;;20.15;;
22046;SDS011;11187;49.412;20.956;2023-03-08T00:46:52;20.90;;;18.25;;
22046;SDS011;11187;49.412;20.956;2023-03-08T00:49:39;28.02;;;22.92;;
22046;SDS011;11187;49.412;20.956;2023-03-08T00:52:12;28.40;;;22.10;;
22046;SDS011;11187;49.412;20.956;2023-03-08T00:54:59;21.50;;;18.85;;
22046;SDS011;11187;49.412;20.956;2023-03-08T00:57:53;24.27;;;19.05;;
22046;SDS011;11187;49.412;20.956;2023-03-08T01:00:47;26.23;;;19.13;;
22046;SDS011;11187;49.412;20.956;2023-03-08T01:03:41;18.38;;;16.30;;
22046;SDS011;11187;49.412;20.956;2023-03-08T01:06:14;18.67;;;16.75;;
22046;SDS011;11187;49.412;20.956;2023-03-08T01:09:01;20.63;;;18.23;;
22046;SDS011;11187;49.412;20.956;2023-03-08T01:11:34;20.92;;;18.65;;
22046;SDS011;11187;49.412;20.956;2023-03-08T01:14:22;21.17;;;17.83;;
22046;SDS011;11187;49.412;20.956;2023-03-08T01:16:55;20.42;;;17.05;;
22046;SDS011;11187;49.412;20.956;2023-03-08T01:19:49;19.33;;;16.90;;
22046;SDS011;11187;49.412;20.956;2023-03-08T01:22:22;16.98;;;14.50;;
22046;SDS011;11187;49.412;20.956;2023-03-08T01:25:16;17.80;;;15.98;;
22046;SDS011;11187;49.412;20.956;2023-03-08T01:28:10;19.27;;;15.73;;
22046;SDS011;11187;49.412;20.956;2023-03-08T01:31:05;18.98;;;17.17;;
22046;SDS011;11187;49.412;20.956;2023-03-08T01:33:48;18.90;;;17.15;;
22046;SDS011;11187;49.412;20.956;2023-03-08T01:36:35;17.55;;;15.85;;
22046;SDS011;11187;49.412;20.956;2023-03-08T01:39:08;17.65;;;15.80;;
22046;SDS011;11187;49.412;20.956;2023-03-08T01:41:55;20.35;;;17.35;;
22046;SDS011;11187;49.412;20.956;2023-03-08T01:44:47;16.70;;;15.10;;
22046;SDS011;11187;49.412;20.956;2023-03-08T01:47:44;17.80;;;16.15;;
22046;SDS011;11187;49.412;20.956;2023-03-08T01:50:17;18.80;;;16.95;;
22046;SDS011;11187;49.412;20.956;2023-03-08T01:53:05;18.42;;;16.52;;
22046;SDS011;11187;49.412;20.956;2023-03-08T01:55:38;19.23;;;17.30;;
22046;SDS011;11187;49.412;20.956;2023-03-08T01:58:25;19.02;;;17.20;;
22046;SDS011;11187;49.412;20.956;2023-03-08T02:00:58;17.92;;;16.13;;
22046;SDS011;11187;49.412;20.956;2023-03-08T02:03:45;19.88;;;16.48;;
22046;SDS011;11187;49.412;20.956;2023-03-08T02:06:19;18.92;;;17.08;;
22046;SDS011;11187;49.412;20.956;2023-03-08T02:09:14;18.20;;;16.45;;
22046;SDS011;11187;49.412;20.956;2023-03-08T02:11:47;20.17;;;18.27;;
22046;SDS011;11187;49.412;20.956;2023-03-08T02:14:35;18.85;;;17.13;;
22046;SDS011;11187;49.412;20.956;2023-03-08T02:17:09;17.48;;;15.77;;
22046;SDS011;11187;49.412;20.956;2023-03-08T02:20:09;18.48;;;16.75;;
22046;SDS011;11187;49.412;20.956;2023-03-08T02:25:51;16.52;;;14.93;;
22046;SDS011;11187;49.412;20.956;2023-03-08T02:28:56;17.45;;;15.75;;
22046;SDS011;11187;49.412;20.956;2023-03-08T02:31:29;17.60;;;15.88;;
22046;SDS011;11187;49.412;20.956;2023-03-08T02:34:23;17.98;;;16.27;;
22046;SDS011;11187;49.412;20.956;2023-03-08T02:36:56;17.85;;;16.13;;
22046;SDS011;11187;49.412;20.956;2023-03-08T02:39:50;17.80;;;15.93;;
22046;SDS011;11187;49.412;20.956;2023-03-08T02:42:23;18.27;;;16.50;;
22046;SDS011;11187;49.412;20.956;2023-03-08T02:45:10;17.20;;;15.70;;
22046;SDS011;11187;49.412;20.956;2023-03-08T02:47:43;16.77;;;14.98;;
22046;SDS011;11187;49.412;20.956;2023-03-08T02:50:37;17.85;;;16.17;;
22046;SDS011;11187;49.412;20.956;2023-03-08T02:53:31;18.25;;;16.75;;
22046;SDS011;11187;49.412;20.956;2023-03-08T02:56:04;16.77;;;15.25;;
22046;SDS011;11187;49.412;20.956;2023-03-08T02:58:51;18.95;;;16.98;;
22046;SDS011;11187;49.412;20.956;2023-03-08T03:01:24;17.25;;;15.65;;
22046;SDS011;11187;49.412;20.956;2023-03-08T03:04:11;16.10;;;14.60;;
22046;SDS011;11187;49.412;20.956;2023-03-08T03:06:44;18.15;;;16.30;;
22046;SDS011;11187;49.412;20.956;2023-03-08T03:09:38;17.52;;;14.73;;
22046;SDS011;11187;49.412;20.956;2023-03-08T03:12:32;18.25;;;16.55;;
22046;SDS011;11187;49.412;20.956;2023-03-08T03:15:06;18.73;;;16.52;;
22046;SDS011;11187;49.412;20.956;2023-03-08T03:18:01;17.63;;;15.48;;
22046;SDS011;11187;49.412;20.956;2023-03-08T03:20:34;17.00;;;15.32;;
22046;SDS011;11187;49.412;20.956;2023-03-08T03:23:21;17.02;;;15.32;;
22046;SDS011;11187;49.412;20.956;2023-03-08T03:26:05;18.73;;;16.20;;
22046;SDS011;11187;49.412;20.956;2023-03-08T03:28:57;17.48;;;15.20;;
22046;SDS011;11187;49.412;20.956;2023-03-08T03:31:38;18.48;;;15.43;;
22046;SDS011;11187;49.412;20.956;2023-03-08T03:34:25;17.45;;;15.70;;
22046;SDS011;11187;49.412;20.956;2023-03-08T03:36:58;16.88;;;15.23;;
22046;SDS011;11187;49.412;20.956;2023-03-08T03:39:45;21.65;;;17.63;;
22046;SDS011;11187;49.412;20.956;2023-03-08T03:42:18;19.08;;;17.25;;
22046;SDS011;11187;49.412;20.956;2023-03-08T03:45:05;20.58;;;17.38;;
22046;SDS011;11187;49.412;20.956;2023-03-08T03:47:48;19.13;;;17.23;;
22046;SDS011;11187;49.412;20.956;2023-03-08T03:50:28;21.75;;;19.50;;
22046;SDS011;11187;49.412;20.956;2023-03-08T03:53:08;15.90;;;14.25;;
22046;SDS011;11187;49.412;20.956;2023-03-08T03:55:48;16.92;;;15.13;;
22046;SDS011;11187;49.412;20.956;2023-03-08T03:58:43;18.30;;;16.42;;
22046;SDS011;11187;49.412;20.956;2023-03-08T04:01:38;20.02;;;15.80;;
22046;SDS011;11187;49.412;20.956;2023-03-08T04:04:11;16.15;;;14.50;;
22046;SDS011;11187;49.412;20.956;2023-03-08T04:06:58;20.33;;;15.57;;
22046;SDS011;11187;49.412;20.956;2023-03-08T04:09:31;18.77;;;16.73;;
22046;SDS011;11187;49.412;20.956;2023-03-08T04:12:18;20.35;;;16.75;;
22046;SDS011;11187;49.412;20.956;2023-03-08T04:14:52;18.73;;;14.68;;
22046;SDS011;11187;49.412;20.956;2023-03-08T04:17:39;19.35;;;15.77;;
22046;SDS011;11187;49.412;20.956;2023-03-08T04:23:25;17.77;;;15.57;;
22046;SDS011;11187;49.412;20.956;2023-03-08T04:26:19;17.50;;;15.52;;
22046;SDS011;11187;49.412;20.956;2023-03-08T04:29:13;23.42;;;15.77;;
22046;SDS011;11187;49.412;20.956;2023-03-08T04:31:46;20.58;;;14.55;;
22046;SDS011;11187;49.412;20.956;2023-03-08T04:34:43;21.20;;;14.63;;
22046;SDS011;11187;49.412;20.956;2023-03-08T04:37:16;19.45;;;15.65;;
22046;SDS011;11187;49.412;20.956;2023-03-08T04:40:10;16.98;;;13.82;;
22046;SDS011;11187;49.412;20.956;2023-03-08T04:43:04;19.30;;;14.23;;
22046;SDS011;11187;49.412;20.956;2023-03-08T04:45:37;20.08;;;15.93;;
22046;SDS011;11187;49.412;20.956;2023-03-08T04:48:24;19.17;;;15.95;;
22046;SDS011;11187;49.412;20.956;2023-03-08T04:50:58;20.05;;;14.30;;
22046;SDS011;11187;49.412;20.956;2023-03-08T04:53:47;18.77;;;14.75;;
22046;SDS011;11187;49.412;20.956;2023-03-08T04:56:20;23.10;;;14.57;;
22046;SDS011;11187;49.412;20.956;2023-03-08T04:59:07;16.45;;;14.05;;
22046;SDS011;11187;49.412;20.956;2023-03-08T05:01:40;17.88;;;15.23;;
22046;SDS011;11187;49.412;20.956;2023-03-08T05:04:27;17.40;;;14.77;;
22046;SDS011;11187;49.412;20.956;2023-03-08T05:07:00;18.50;;;14.65;;
22046;SDS011;11187;49.412;20.956;2023-03-08T05:09:47;17.33;;;13.45;;
22046;SDS011;11187;49.412;20.956;2023-03-08T05:12:20;20.20;;;12.32;;
22046;SDS011;11187;49.412;20.956;2023-03-08T05:15:07;16.13;;;12.90;;
22046;SDS011;11187;49.412;20.956;2023-03-08T05:17:40;15.35;;;11.35;;
22046;SDS011;11187;49.412;20.956;2023-03-08T05:20:27;19.35;;;13.43;;
22046;SDS011;11187;49.412;20.956;2023-03-08T05:23:00;23.45;;;13.30;;
22046;SDS011;11187;49.412;20.956;2023-03-08T05:25:50;14.18;;;11.93;;
22046;SDS011;11187;49.412;20.956;2023-03-08T05:28:27;20.45;;;13.65;;
22046;SDS011;11187;49.412;20.956;2023-03-08T05:31:27;13.60;;;12.15;;
22046;SDS011;11187;49.412;20.956;2023-03-08T05:34:00;15.63;;;12.95;;
22046;SDS011;11187;49.412;20.956;2023-03-08T05:36:54;15.02;;;13.48;;
22046;SDS011;11187;49.412;20.956;2023-03-08T05:39:48;20.75;;;13.45;;
22046;SDS011;11187;49.412;20.956;2023-03-08T05:42:21;18.02;;;12.65;;
22046;SDS011;11187;49.412;20.956;2023-03-08T05:45:09;13.52;;;12.00;;
22046;SDS011;11187;49.412;20.956;2023-03-08T05:47:42;15.73;;;14.07;;
22046;SDS011;11187;49.412;20.956;2023-03-08T05:50:29;17.90;;;13.65;;
22046;SDS011;11187;49.412;20.956;2023-03-08T05:53:02;17.83;;;13.65;;
22046;SDS011;11187;49.412;20.956;2023-03-08T05:55:56;15.68;;;13.57;;
22046;SDS011;11187;49.412;20.956;2023-03-08T05:58:50;15.15;;;13.25;;
22046;SDS011;11187;49.412;20.956;2023-03-08T06:01:44;16.88;;;14.07;;
22046;SDS011;11187;49.412;20.956;2023-03-08T06:04:17;17.70;;;12.35;;
22046;SDS011;11187;49.412;20.956;2023-03-08T06:07:04;18.35;;;12.65;;
22046;SDS011;11187;49.412;20.956;2023-03-08T06:09:37;19.27;;;14.35;;
22046;SDS011;11187;49.412;20.956;2023-03-08T06:12:24;15.48;;;12.65;;
22046;SDS011;11187;49.412;20.956;2023-03-08T06:15:00;14.70;;;12.43;;
22046;SDS011;11187;49.412;20.956;2023-03-08T06:17:54;16.33;;;14.13;;
22046;SDS011;11187;49.412;20.956;2023-03-08T06:23:31;17.70;;;13.52;;
22046;SDS011;11187;49.412;20.956;2023-03-08T06:26:19;16.13;;;14.40;;
22046;SDS011;11187;49.412;20.956;2023-03-08T06:28:52;19.33;;;14.57;;
22046;SDS011;11187;49.412;20.956;2023-03-08T06:31:39;19.13;;;14.25;;
22046;SDS011;11187;49.412;20.956;2023-03-08T06:34:12;15.70;;;13.13;;
22046;SDS011;11187;49.412;20.956;2023-03-08T06:37:00;18.33;;;12.40;;
22046;SDS011;11187;49.412;20.956;2023-03-08T06:39:36;15.32;;;12.95;;
22046;SDS011;11187;49.412;20.956;2023-03-08T06:42:23;16.77;;;12.98;;
22046;SDS011;11187;49.412;20.956;2023-03-08T06:45:10;14.98;;;13.43;;
22046;SDS011;11187;49.412;20.956;2023-03-08T06:47:57;19.70;;;14.07;;
22046;SDS011;11187;49.412;20.956;2023-03-08T06:50:31;17.17;;;14.98;;
22046;SDS011;11187;49.412;20.956;2023-03-08T06:53:18;21.08;;;12.43;;
22046;SDS011;11187;49.412;20.956;2023-03-08T06:55:51;17.00;;;14.95;;
22046;SDS011;11187;49.412;20.956;2023-03-08T06:58:41;18.55;;;16.77;;
22046;SDS011;11187;49.412;20.956;2023-03-08T07:01:15;16.77;;;14.98;;
22046;SDS011;11187;49.412;20.956;2023-03-08T07:04:09;18.63;;;14.23;;
22046;SDS011;11187;49.412;20.956;2023-03-08T07:07:03;17.95;;;16.05;;
22046;SDS011;11187;49.412;20.956;2023-03-08T07:09:57;17.60;;;15.35;;
22046;SDS011;11187;49.412;20.956;2023-03-08T07:12:30;17.00;;;15.40;;
22046;SDS011;11187;49.412;20.956;2023-03-08T07:15:25;18.00;;;15.25;;
22046;SDS011;11187;49.412;20.956;2023-03-08T07:18:01;16.70;;;15.00;;
22046;SDS011;11187;49.412;20.956;2023-03-08T07:20:55;14.85;;;13.48;;
22046;SDS011;11187;49.412;20.956;2023-03-08T07:23:50;17.35;;;15.68;;
22046;SDS011;11187;49.412;20.956;2023-03-08T07:26:44;18.95;;;14.80;;
22046;SDS011;11187;49.412;20.956;2023-03-08T07:29:17;16.13;;;14.48;;
22046;SDS011;11187;49.412;20.956;2023-03-08T07:32:04;14.80;;;13.32;;
22046;SDS011;11187;49.412;20.956;2023-03-08T07:34:38;17.70;;;16.02;;
22046;SDS011;11187;49.412;20.956;2023-03-08T07:37:24;16.33;;;14.85;;
22046;SDS011;11187;49.412;20.956;2023-03-08T07:39:57;16.25;;;14.63;;
22046;SDS011;11187;49.412;20.956;2023-03-08T07:42:51;16.50;;;14.90;;
22046;SDS011;11187;49.412;20.956;2023-03-08T07:45:45;17.05;;;15.27;;
22046;SDS011;11187;49.412;20.956;2023-03-08T07:48:39;18.23;;;16.63;;
22046;SDS011;11187;49.412;20.956;2023-03-08T07:51:12;17.30;;;14.90;;
22046;SDS011;11187;49.412;20.956;2023-03-08T07:53:59;15.77;;;14.38;;
22046;SDS011;11187;49.412;20.956;2023-03-08T07:56:32;22.98;;;14.48;;
22046;SDS011;11187;49.412;20.956;2023-03-08T07:59:19;19.08;;;17.48;;
22046;SDS011;11187;49.412;20.956;2023-03-08T08:01:52;19.02;;;13.13;;
22046;SDS011;11187;49.412;20.956;2023-03-08T08:04:39;16.30;;;14.57;;
22046;SDS011;11187;49.412;20.956;2023-03-08T08:07:13;16.65;;;15.27;;
22046;SDS011;11187;49.412;20.956;2023-03-08T08:10:01;18.13;;;16.48;;
22046;SDS011;11187;49.412;20.956;2023-03-08T08:12:34;18.38;;;16.77;;
22046;SDS011;11187;49.412;20.956;2023-03-08T08:15:21;16.33;;;14.82;;
22046;SDS011;11187;49.412;20.956;2023-03-08T08:17:58;16.05;;;14.60;;
22046;SDS011;11187;49.412;20.956;2023-03-08T08:21:01;15.38;;;13.88;;
22046;SDS011;11187;49.412;20.956;2023-03-08T08:23:57;16.33;;;14.93;;
22046;SDS011;11187;49.412;20.956;2023-03-08T08:26:30;15.55;;;14.07;;
22046;SDS011;11187;49.412;20.956;2023-03-08T08:29:17;16.20;;;14.90;;
22046;SDS011;11187;49.412;20.956;2023-03-08T08:31:50;14.20;;;12.95;;
22046;SDS011;11187;49.412;20.956;2023-03-08T08:34:37;15.45;;;14.00;;
22046;SDS011;11187;49.412;20.956;2023-03-08T08:37:10;15.20;;;13.90;;
22046;SDS011;11187;49.412;20.956;2023-03-08T08:40:04;15.23;;;13.82;;
22046;SDS011;11187;49.412;20.956;2023-03-08T08:42:39;15.02;;;13.80;;
22046;SDS011;11187;49.412;20.956;2023-03-08T08:45:33;16.98;;;15.60;;
22046;SDS011;11187;49.412;20.956;2023-03-08T08:48:27;17.75;;;15.98;;
22046;SDS011;11187;49.412;20.956;2023-03-08T08:51:01;17.30;;;15.80;;
22046;SDS011;11187;49.412;20.956;2023-03-08T08:53:56;17.00;;;15.35;;
22046;SDS011;11187;49.412;20.956;2023-03-08T08:56:29;19.77;;;18.17;;
22046;SDS011;11187;49.412;20.956;2023-03-08T08:59:21;17.10;;;15.60;;
22046;SDS011;11187;49.412;20.956;2023-03-08T09:01:54;16.13;;;14.73;;
22046;SDS011;11187;49.412;20.956;2023-03-08T09:04:48;18.40;;;16.90;;
22046;SDS011;11187;49.412;20.956;2023-03-08T09:07:21;15.90;;;14.50;;
22046;SDS011;11187;49.412;20.956;2023-03-08T09:10:08;17.60;;;15.95;;
22046;SDS011;11187;49.412;20.956;2023-03-08T09:12:42;17.02;;;15.60;;
22046;SDS011;11187;49.412;20.956;2023-03-08T09:15:37;28.58;;;14.02;;
22046;SDS011;11187;49.412;20.956;2023-03-08T09:18:31;15.18;;;13.73;;
22046;SDS011;11187;49.412;20.956;2023-03-08T09:21:25;16.88;;;15.57;;
22046;SDS011;11187;49.412;20.956;2023-03-08T09:24:00;16.60;;;15.15;;
22046;SDS011;11187;49.412;20.956;2023-03-08T09:26:56;15.90;;;14.60;;
22046;SDS011;11187;49.412;20.956;2023-03-08T09:29:50;15.80;;;14.13;;
22046;SDS011;11187;49.412;20.956;2023-03-08T09:32:44;14.77;;;13.32;;
22046;SDS011;11187;49.412;20.956;2023-03-08T09:35:17;14.55;;;13.35;;
22046;SDS011;11187;49.412;20.956;2023-03-08T09:38:04;15.57;;;14.20;;
22046;SDS011;11187;49.412;20.956;2023-03-08T09:40:40;18.30;;;16.65;;
22046;SDS011;11187;49.412;20.956;2023-03-08T09:46:48;15.63;;;14.32;;
22046;SDS011;11187;49.412;20.956;2023-03-08T09:49:41;15.23;;;13.93;;
22046;SDS011;11187;49.412;20.956;2023-03-08T09:59:07;14.70;;;13.57;;
22046;SDS011;11187;49.412;20.956;2023-03-08T10:11:16;13.90;;;12.60;;
22046;SDS011;11187;49.412;20.956;2023-03-08T10:14:21;13.20;;;12.00;;
22046;SDS011;11187;49.412;20.956;2023-03-08T10:17:12;14.82;;;13.07;;
22046;SDS011;11187;49.412;20.956;2023-03-08T10:20:16;14.13;;;13.10;;
22046;SDS011;11187;49.412;20.956;2023-03-08T10:23:14;12.00;;;9.95;;
22046;SDS011;11187;49.412;20.956;2023-03-08T10:26:11;14.60;;;13.40;;
22046;SDS011;11187;49.412;20.956;2023-03-08T10:28:46;15.00;;;13.90;;
22046;SDS011;11187;49.412;20.956;2023-03-08T10:31:41;14.20;;;13.10;;
22046;SDS011;11187;49.412;20.956;2023-03-08T10:34:36;14.00;;;12.73;;
22046;SDS011;11187;49.412;20.956;2023-03-08T10:37:09;12.13;;;11.13;;
22046;SDS011;11187;49.412;20.956;2023-03-08T10:40:21;14.18;;;12.50;;
22046;SDS011;11187;49.412;20.956;2023-03-08T10:43:23;13.40;;;12.38;;
22046;SDS011;11187;49.412;20.956;2023-03-08T10:46:22;14.60;;;13.30;;
22046;SDS011;11187;49.412;20.956;2023-03-08T10:49:07;14.43;;;13.13;;
22046;SDS011;11187;49.412;20.956;2023-03-08T10:52:13;17.80;;;15.98;;
22046;SDS011;11187;49.412;20.956;2023-03-08T10:55:39;17.50;;;16.10;;
22046;SDS011;11187;49.412;20.956;2023-03-08T11:01:22;16.05;;;14.65;;
22046;SDS011;11187;49.412;20.956;2023-03-08T11:04:22;16.67;;;15.30;;
22046;SDS011;11187;49.412;20.956;2023-03-08T11:07:08;16.27;;;14.93;;
22046;SDS011;11187;49.412;20.956;2023-03-08T11:12:45;15.65;;;14.35;;
22046;SDS011;11187;49.412;20.956;2023-03-08T11:15:32;15.43;;;14.02;;
22046;SDS011;11187;49.412;20.956;2023-03-08T11:24:25;15.88;;;14.50;;
22046;SDS011;11187;49.412;20.956;2023-03-08T11:27:24;15.82;;;14.45;;
22046;SDS011;11187;49.412;20.956;2023-03-08T11:30:53;15.20;;;14.05;;
22046;SDS011;11187;49.412;20.956;2023-03-08T11:39:31;14.75;;;13.45;;
22046;SDS011;11187;49.412;20.956;2023-03-08T11:42:38;15.73;;;14.23;;
22046;SDS011;11187;49.412;20.956;2023-03-08T11:49:30;15.45;;;14.02;;
22046;SDS011;11187;49.412;20.956;2023-03-08T11:52:30;16.33;;;14.93;;
22046;SDS011;11187;49.412;20.956;2023-03-08T12:01:23;17.08;;;15.70;;
22046;SDS011;11187;49.412;20.956;2023-03-08T12:04:25;15.68;;;14.23;;
22046;SDS011;11187;49.412;20.956;2023-03-08T12:07:37;15.02;;;13.82;;
22046;SDS011;11187;49.412;20.956;2023-03-08T12:27:11;15.23;;;13.75;;
22046;SDS011;11187;49.412;20.956;2023-03-08T12:30:15;14.60;;;13.52;;
22046;SDS011;11187;49.412;20.956;2023-03-08T12:33:23;14.20;;;13.07;;
22046;SDS011;11187;49.412;20.956;2023-03-08T12:36:01;15.65;;;14.25;;
22046;SDS011;11187;49.412;20.956;2023-03-08T12:38:50;15.82;;;14.60;;
22046;SDS011;11187;49.412;20.956;2023-03-08T12:41:29;14.23;;;13.10;;
22046;SDS011;11187;49.412;20.956;2023-03-08T12:44:24;13.55;;;12.38;;
22046;SDS011;11187;49.412;20.956;2023-03-08T12:47:00;14.43;;;13.05;;
22046;SDS011;11187;49.412;20.956;2023-03-08T12:50:07;17.98;;;16.42;;
22046;SDS011;11187;49.412;20.956;2023-03-08T12:52:50;14.85;;;13.68;;
22046;SDS011;11187;49.412;20.956;2023-03-08T12:55:44;14.35;;;13.18;;
22046;SDS011;11187;49.412;20.956;2023-03-08T12:58:46;14.98;;;13.27;;
22046;SDS011;11187;49.412;20.956;2023-03-08T13:05:14;15.15;;;13.95;;
22046;SDS011;11187;49.412;20.956;2023-03-08T13:16:37;14.93;;;13.52;;
22046;SDS011;11187;49.412;20.956;2023-03-08T13:19:27;14.35;;;12.85;;
22046;SDS011;11187;49.412;20.956;2023-03-08T13:22:27;12.45;;;11.50;;
22046;SDS011;11187;49.412;20.956;2023-03-08T13:31:00;15.45;;;11.20;;
22046;SDS011;11187;49.412;20.956;2023-03-08T13:33:36;13.80;;;12.68;;
22046;SDS011;11187;49.412;20.956;2023-03-08T13:36:33;13.32;;;12.32;;
22046;SDS011;11187;49.412;20.956;2023-03-08T13:39:15;12.05;;;11.05;;
22046;SDS011;11187;49.412;20.956;2023-03-08T13:42:15;12.52;;;11.52;;
22046;SDS011;11187;49.412;20.956;2023-03-08T13:45:18;13.05;;;12.00;;
22046;SDS011;11187;49.412;20.956;2023-03-08T13:47:53;15.32;;;13.68;;
22046;SDS011;11187;49.412;20.956;2023-03-08T13:50:44;14.98;;;13.57;;
22046;SDS011;11187;49.412;20.956;2023-03-08T13:53:21;16.35;;;14.65;;
22046;SDS011;11187;49.412;20.956;2023-03-08T13:56:20;15.45;;;14.13;;
22046;SDS011;11187;49.412;20.956;2023-03-08T13:58:57;13.95;;;12.65;;
22046;SDS011;11187;49.412;20.956;2023-03-08T14:01:49;15.88;;;14.57;;
22046;SDS011;11187;49.412;20.956;2023-03-08T14:04:27;12.60;;;11.57;;
22046;SDS011;11187;49.412;20.956;2023-03-08T14:09:57;14.18;;;12.82;;
22046;SDS011;11187;49.412;20.956;2023-03-08T14:12:44;14.57;;;13.57;;
22046;SDS011;11187;49.412;20.956;2023-03-08T14:15:18;14.35;;;13.32;;
22046;SDS011;11187;49.412;20.956;2023-03-08T14:18:21;14.18;;;12.77;;
22046;SDS011;11187;49.412;20.956;2023-03-08T14:26:35;13.05;;;11.85;;
22046;SDS011;11187;49.412;20.956;2023-03-08T14:29:35;11.95;;;11.05;;
22046;SDS011;11187;49.412;20.956;2023-03-08T14:32:29;12.05;;;10.95;;
22046;SDS011;11187;49.412;20.956;2023-03-08T14:35:15;13.70;;;12.20;;
22046;SDS011;11187;49.412;20.956;2023-03-08T14:38:48;14.43;;;13.00;;
22046;SDS011;11187;49.412;20.956;2023-03-08T14:41:35;15.77;;;14.18;;
22046;SDS011;11187;49.412;20.956;2023-03-08T14:44:14;16.30;;;14.75;;
22046;SDS011;11187;49.412;20.956;2023-03-08T14:47:23;14.82;;;13.52;;
22046;SDS011;11187;49.412;20.956;2023-03-08T14:50:03;13.98;;;12.77;;
22046;SDS011;11187;49.412;20.956;2023-03-08T14:53:27;15.00;;;13.60;;
22046;SDS011;11187;49.412;20.956;2023-03-08T14:56:21;16.02;;;14.60;;
22046;SDS011;11187;49.412;20.956;2023-03-08T14:59:16;12.70;;;11.68;;
22046;SDS011;11187;49.412;20.956;2023-03-08T15:02:14;14.55;;;13.13;;
22046;SDS011;11187;49.412;20.956;2023-03-08T15:04:49;13.15;;;11.70;;
22046;SDS011;11187;49.412;20.956;2023-03-08T15:07:45;13.48;;;12.13;;
22046;SDS011;11187;49.412;20.956;2023-03-08T15:10:26;13.63;;;12.40;;
22046;SDS011;11187;49.412;20.956;2023-03-08T15:13:18;14.55;;;11.68;;
22046;SDS011;11187;49.412;20.956;2023-03-08T15:15:53;12.45;;;11.45;;
22046;SDS011;11187;49.412;20.956;2023-03-08T15:18:41;14.82;;;13.07;;
22046;SDS011;11187;49.412;20.956;2023-03-08T15:21:18;15.32;;;13.88;;
22046;SDS011;11187;49.412;20.956;2023-03-08T15:24:17;14.45;;;13.02;;
22046;SDS011;11187;49.412;20.956;2023-03-08T15:26:51;18.10;;;14.55;;
22046;SDS011;11187;49.412;20.956;2023-03-08T15:29:38;15.45;;;12.85;;
22046;SDS011;11187;49.412;20.956;2023-03-08T15:32:13;17.10;;;14.10;;
22046;SDS011;11187;49.412;20.956;2023-03-08T15:35:08;19.35;;;14.13;;
22046;SDS011;11187;49.412;20.956;2023-03-08T15:38:02;17.23;;;15.55;;
22046;SDS011;11187;49.412;20.956;2023-03-08T15:40:38;17.15;;;15.35;;
22046;SDS011;11187;49.412;20.956;2023-03-08T15:43:32;16.13;;;14.40;;
22046;SDS011;11187;49.412;20.956;2023-03-08T15:46:28;17.85;;;14.93;;
22046;SDS011;11187;49.412;20.956;2023-03-08T15:49:05;22.88;;;15.40;;
22046;SDS011;11187;49.412;20.956;2023-03-08T15:51:52;16.27;;;13.57;;
22046;SDS011;11187;49.412;20.956;2023-03-08T15:54:26;24.25;;;15.73;;
22046;SDS011;11187;49.412;20.956;2023-03-08T15:57:12;18.88;;;16.88;;
22046;SDS011;11187;49.412;20.956;2023-03-08T15:59:46;19.30;;;17.60;;
22046;SDS011;11187;49.412;20.956;2023-03-08T16:02:32;17.77;;;15.88;;
22046;SDS011;11187;49.412;20.956;2023-03-08T16:05:07;16.55;;;14.73;;
22046;SDS011;11187;49.412;20.956;2023-03-08T16:08:02;27.05;;;16.65;;
22046;SDS011;11187;49.412;20.956;2023-03-08T16:10:56;21.10;;;17.08;;
22046;SDS011;11187;49.412;20.956;2023-03-08T16:13:51;23.20;;;17.58;;
22046;SDS011;11187;49.412;20.956;2023-03-08T16:16:45;17.38;;;15.70;;
22046;SDS011;11187;49.412;20.956;2023-03-08T16:19:19;20.80;;;16.63;;
22046;SDS011;11187;49.412;20.956;2023-03-08T16:22:06;19.02;;;15.95;;
22046;SDS011;11187;49.412;20.956;2023-03-08T16:24:40;19.98;;;15.95;;
22046;SDS011;11187;49.412;20.956;2023-03-08T16:27:34;21.25;;;16.27;;
22046;SDS011;11187;49.412;20.956;2023-03-08T16:30:28;21.58;;;18.10;;
22046;SDS011;11187;49.412;20.956;2023-03-08T16:33:25;20.33;;;17.73;;
22046;SDS011;11187;49.412;20.956;2023-03-08T16:36:01;18.13;;;16.27;;
22046;SDS011;11187;49.412;20.956;2023-03-08T16:38:48;22.23;;;19.77;;
22046;SDS011;11187;49.412;20.956;2023-03-08T16:41:42;16.67;;;14.65;;
22046;SDS011;11187;49.412;20.956;2023-03-08T16:44:36;17.27;;;15.23;;
22046;SDS011;11187;49.412;20.956;2023-03-08T16:47:11;16.73;;;14.77;;
22046;SDS011;11187;49.412;20.956;2023-03-08T16:49:58;21.40;;;15.90;;
22046;SDS011;11187;49.412;20.956;2023-03-08T16:52:32;21.77;;;17.50;;
22046;SDS011;11187;49.412;20.956;2023-03-08T16:55:18;20.35;;;13.82;;
22046;SDS011;11187;49.412;20.956;2023-03-08T16:57:52;18.52;;;16.63;;
22046;SDS011;11187;49.412;20.956;2023-03-08T17:00:39;18.60;;;15.82;;
22046;SDS011;11187;49.412;20.956;2023-03-08T17:03:13;18.40;;;16.15;;
22046;SDS011;11187;49.412;20.956;2023-03-08T17:06:00;17.45;;;14.90;;
22046;SDS011;11187;49.412;20.956;2023-03-08T17:08:34;23.17;;;17.60;;
22046;SDS011;11187;49.412;20.956;2023-03-08T17:11:21;17.58;;;15.57;;
22046;SDS011;11187;49.412;20.956;2023-03-08T17:14:01;19.75;;;16.75;;
22046;SDS011;11187;49.412;20.956;2023-03-08T17:16:50;22.15;;;16.35;;
22046;SDS011;11187;49.412;20.956;2023-03-08T17:19:24;21.25;;;15.60;;
22046;SDS011;11187;49.412;20.956;2023-03-08T17:22:10;20.95;;;15.27;;
22046;SDS011;11187;49.412;20.956;2023-03-08T17:24:44;20.73;;;16.40;;
22046;SDS011;11187;49.412;20.956;2023-03-08T17:27:30;24.20;;;18.00;;
22046;SDS011;11187;49.412;20.956;2023-03-08T17:30:04;25.10;;;17.63;;
22046;SDS011;11187;49.412;20.956;2023-03-08T17:32:52;26.60;;;19.42;;
22046;SDS011;11187;49.412;20.956;2023-03-08T17:35:26;20.25;;;15.98;;